Wilmington, OH

6:44 PM EDT on July 25, 2016 (GMT -0400)
2.2 N Wilmington | | Change Station
Active Advisory: Heat Advisory

Elev 1053 ft 39.47 °N, 83.84 °W | Updated 1 minute ago

Clear
Clear
90.2 °F
Feels Like 95 °F
N
4.0
Wind Variable Wind from NW
Gusts 7.0 mph

Today
High -- | Low -- °F
--% Chance of Precip.
Yesterday
High -- | Low -- °F
Precip. -- in
Pressure 29.93 in
Visibility 10.0 miles
Clouds Clear
Heat Index 95 °F
Dew Point 70 °F
Humidity 51%
Rainfall 0.00 in
Snow Depth Not available.
6:29 AM 8:53 PM
Waning Gibbous, 61% visible
METAR KILN 252154Z AUTO 30008KT 10SM CLR 32/19 A2997 RMK AO2 LTG DSNT SE AND S SLP133 T03220189
Pressure 29.93 in
Visibility 10.0 miles
Clouds Clear
Heat Index 95 °F
Dew Point 70 °F
Humidity 51%
Rainfall 0.00 in
Snow Depth Not available.
6:29 AM 8:53 PM
Waning Gibbous, 61% visible
METAR KILN 252154Z AUTO 30008KT 10SM CLR 32/19 A2997 RMK AO2 LTG DSNT SE AND S SLP133 T03220189
Record highs are possible for parts of the Northeast Monday and Tuesday, as parts of the central U.S. take a little breather from the worst of summer's dog day heat.

Expansive high pressure in the upper atmosphere will focus on parts of the East and West this week, sending heat indices well into the triple digits from the Mid-Atlantic states into the South.

10-Day Weather Forecast

Almanac

Astronomy

Jul. 25, 2016 Rise Set
Actual Time
Civil Twilight
Nautical Twilight
Astronomical Twilight
Moon
Length of Visible Light
Length of Day
Tomorrow will be .
, % of the Moon is Illuminated

Today's Extremes

State Highs State Lows

Community

WunderPhotos

Upload Photos

1,927,436 photos uploaded!

WunderBlog® & News

Nearby

Air Quality

  Air Quality AQ Index Pollutant
Not available.

Snow Depth

Station Depth Elevation

Earthquake Activity

City Distance Mag. Time & Date
Minimum magnitude displayed is 2.5.

Coastal Water Temperatures

Place Temperature

Stations

Nearby Weather Stations

Station Location Temp. Windchill Dew Point Humidity Wind Precip. Elev Updated Type
                   

Watches & Warnings

Heat Advisory
Issued: 6:36 PM EDT Jul. 25, 2016 – National Weather Service

... Heat advisory is cancelled...

The National Weather Service in Wilmington has cancelled the heat
advisory.

Heat index values have dropped below 100 and will continue to
decrease this evening therefore the heat advisory has been
cancelled.